sensor_id;sensor_type;location;lat;lon;timestamp;pressure;altitude;pressure_sealevel;temperature
15062;BMP180;7630;50.306;8.566;2023-04-25T00:01:03;97104.00;;;11.00
15062;BMP180;7630;50.306;8.566;2023-04-25T00:05:06;97110.00;;;10.60
15062;BMP180;7630;50.306;8.566;2023-04-25T00:09:08;97115.00;;;11.10
15062;BMP180;7630;50.306;8.566;2023-04-25T00:13:10;97108.00;;;10.20
15062;BMP180;7630;50.306;8.566;2023-04-25T00:17:12;97108.00;;;10.20
15062;BMP180;7630;50.306;8.566;2023-04-25T00:21:13;97121.00;;;10.00
15062;BMP180;7630;50.306;8.566;2023-04-25T00:25:15;97104.00;;;10.80
15062;BMP180;7630;50.306;8.566;2023-04-25T00:29:17;97107.00;;;10.70
15062;BMP180;7630;50.306;8.566;2023-04-25T00:33:18;97108.00;;;10.30
15062;BMP180;7630;50.306;8.566;2023-04-25T00:37:19;97105.00;;;10.70
15062;BMP180;7630;50.306;8.566;2023-04-25T00:41:20;96973.00;;;10.30
15062;BMP180;7630;50.306;8.566;2023-04-25T00:45:25;97100.00;;;9.70
15062;BMP180;7630;50.306;8.566;2023-04-25T00:49:28;97106.00;;;10.00
15062;BMP180;7630;50.306;8.566;2023-04-25T00:53:30;97101.00;;;9.50
15062;BMP180;7630;50.306;8.566;2023-04-25T00:57:33;97105.00;;;9.40
15062;BMP180;7630;50.306;8.566;2023-04-25T01:01:35;97098.00;;;9.30
15062;BMP180;7630;50.306;8.566;2023-04-25T01:05:36;97097.00;;;9.30
15062;BMP180;7630;50.306;8.566;2023-04-25T01:09:38;97110.00;;;9.40
15062;BMP180;7630;50.306;8.566;2023-04-25T01:13:39;97106.00;;;10.20
15062;BMP180;7630;50.306;8.566;2023-04-25T01:17:40;97100.00;;;10.10
15062;BMP180;7630;50.306;8.566;2023-04-25T01:21:43;97091.00;;;10.20
15062;BMP180;7630;50.306;8.566;2023-04-25T01:25:45;97098.00;;;9.90
15062;BMP180;7630;50.306;8.566;2023-04-25T01:29:46;97093.00;;;9.70
15062;BMP180;7630;50.306;8.566;2023-04-25T01:33:48;97091.00;;;8.60
15062;BMP180;7630;50.306;8.566;2023-04-25T01:37:51;97086.00;;;10.00
15062;BMP180;7630;50.306;8.566;2023-04-25T01:41:52;97084.00;;;9.50
15062;BMP180;7630;50.306;8.566;2023-04-25T01:45:54;97087.00;;;9.70
15062;BMP180;7630;50.306;8.566;2023-04-25T01:49:55;97084.00;;;9.30
15062;BMP180;7630;50.306;8.566;2023-04-25T01:53:57;97083.00;;;9.40
15062;BMP180;7630;50.306;8.566;2023-04-25T01:58:03;97084.00;;;10.30
15062;BMP180;7630;50.306;8.566;2023-04-25T02:02:04;97096.00;;;9.50
15062;BMP180;7630;50.306;8.566;2023-04-25T02:06:05;97084.00;;;9.40
15062;BMP180;7630;50.306;8.566;2023-04-25T02:10:07;97091.00;;;8.80
15062;BMP180;7630;50.306;8.566;2023-04-25T02:14:10;97095.00;;;9.40
15062;BMP180;7630;50.306;8.566;2023-04-25T02:18:11;97092.00;;;9.70
15062;BMP180;7630;50.306;8.566;2023-04-25T02:22:13;97097.00;;;9.40
15062;BMP180;7630;50.306;8.566;2023-04-25T02:26:14;97092.00;;;9.30
15062;BMP180;7630;50.306;8.566;2023-04-25T02:30:15;97096.00;;;9.20
15062;BMP180;7630;50.306;8.566;2023-04-25T02:34:16;97085.00;;;9.10
15062;BMP180;7630;50.306;8.566;2023-04-25T02:38:17;96985.00;;;8.30
15062;BMP180;7630;50.306;8.566;2023-04-25T02:42:19;97094.00;;;7.80
15062;BMP180;7630;50.306;8.566;2023-04-25T02:46:20;97084.00;;;8.00
15062;BMP180;7630;50.306;8.566;2023-04-25T02:50:23;97089.00;;;7.80
15062;BMP180;7630;50.306;8.566;2023-04-25T02:54:24;97100.00;;;7.70
15062;BMP180;7630;50.306;8.566;2023-04-25T02:58:25;97088.00;;;8.60
15062;BMP180;7630;50.306;8.566;2023-04-25T03:02:26;97081.00;;;7.90
15062;BMP180;7630;50.306;8.566;2023-04-25T03:06:28;97089.00;;;8.00
15062;BMP180;7630;50.306;8.566;2023-04-25T03:10:29;97090.00;;;7.50
15062;BMP180;7630;50.306;8.566;2023-04-25T03:14:30;97090.00;;;7.50
15062;BMP180;7630;50.306;8.566;2023-04-25T03:18:31;97079.00;;;7.70
15062;BMP180;7630;50.306;8.566;2023-04-25T03:22:33;97088.00;;;7.80
15062;BMP180;7630;50.306;8.566;2023-04-25T03:26:34;97081.00;;;8.10
15062;BMP180;7630;50.306;8.566;2023-04-25T03:30:35;97095.00;;;8.20
15062;BMP180;7630;50.306;8.566;2023-04-25T03:34:36;97084.00;;;7.70
15062;BMP180;7630;50.306;8.566;2023-04-25T03:38:38;97091.00;;;7.20
15062;BMP180;7630;50.306;8.566;2023-04-25T03:42:39;97102.00;;;7.40
15062;BMP180;7630;50.306;8.566;2023-04-25T03:46:40;97104.00;;;7.60
15062;BMP180;7630;50.306;8.566;2023-04-25T03:50:41;97111.00;;;7.60
15062;BMP180;7630;50.306;8.566;2023-04-25T03:54:42;97125.00;;;7.70
15062;BMP180;7630;50.306;8.566;2023-04-25T03:58:43;97124.00;;;6.90
15062;BMP180;7630;50.306;8.566;2023-04-25T04:02:44;97131.00;;;7.20
15062;BMP180;7630;50.306;8.566;2023-04-25T04:06:46;97130.00;;;7.80
15062;BMP180;7630;50.306;8.566;2023-04-25T04:10:47;97125.00;;;7.50
15062;BMP180;7630;50.306;8.566;2023-04-25T04:14:49;97129.00;;;8.00
15062;BMP180;7630;50.306;8.566;2023-04-25T04:18:50;97130.00;;;8.00
15062;BMP180;7630;50.306;8.566;2023-04-25T04:22:52;97132.00;;;7.40
15062;BMP180;7630;50.306;8.566;2023-04-25T04:26:53;97140.00;;;7.90
15062;BMP180;7630;50.306;8.566;2023-04-25T04:30:54;97142.00;;;8.10
15062;BMP180;7630;50.306;8.566;2023-04-25T04:34:56;97146.00;;;8.30
15062;BMP180;7630;50.306;8.566;2023-04-25T04:38:57;97139.00;;;8.10
15062;BMP180;7630;50.306;8.566;2023-04-25T04:42:59;97150.00;;;8.20
15062;BMP180;7630;50.306;8.566;2023-04-25T04:47:00;97147.00;;;7.00
15062;BMP180;7630;50.306;8.566;2023-04-25T04:51:01;97147.00;;;7.20
15062;BMP180;7630;50.306;8.566;2023-04-25T04:55:22;97154.00;;;6.40
15062;BMP180;7630;50.306;8.566;2023-04-25T04:59:23;97163.00;;;7.20
15062;BMP180;7630;50.306;8.566;2023-04-25T05:03:24;97184.00;;;8.30
15062;BMP180;7630;50.306;8.566;2023-04-25T05:07:25;97176.00;;;8.70
15062;BMP180;7630;50.306;8.566;2023-04-25T05:11:26;97176.00;;;8.70
15062;BMP180;7630;50.306;8.566;2023-04-25T05:15:27;97182.00;;;8.00
15062;BMP180;7630;50.306;8.566;2023-04-25T05:19:29;97181.00;;;8.40
15062;BMP180;7630;50.306;8.566;2023-04-25T05:23:31;97175.00;;;6.90
15062;BMP180;7630;50.306;8.566;2023-04-25T05:27:33;97180.00;;;7.00
15062;BMP180;7630;50.306;8.566;2023-04-25T05:31:35;97177.00;;;7.60
15062;BMP180;7630;50.306;8.566;2023-04-25T05:35:37;97181.00;;;8.20
15062;BMP180;7630;50.306;8.566;2023-04-25T05:39:38;97177.00;;;8.10
15062;BMP180;7630;50.306;8.566;2023-04-25T05:43:39;97181.00;;;9.10
15062;BMP180;7630;50.306;8.566;2023-04-25T05:47:42;97198.00;;;9.40
15062;BMP180;7630;50.306;8.566;2023-04-25T05:51:43;97198.00;;;8.80
15062;BMP180;7630;50.306;8.566;2023-04-25T05:55:44;97193.00;;;9.10
15062;BMP180;7630;50.306;8.566;2023-04-25T05:59:45;97194.00;;;9.00
15062;BMP180;7630;50.306;8.566;2023-04-25T06:03:47;97198.00;;;8.00
15062;BMP180;7630;50.306;8.566;2023-04-25T06:07:49;97197.00;;;8.80
15062;BMP180;7630;50.306;8.566;2023-04-25T06:11:50;97198.00;;;8.40
15062;BMP180;7630;50.306;8.566;2023-04-25T06:15:51;97195.00;;;8.50
15062;BMP180;7630;50.306;8.566;2023-04-25T06:19:52;97194.00;;;9.10
15062;BMP180;7630;50.306;8.566;2023-04-25T06:23:53;97192.00;;;8.90
15062;BMP180;7630;50.306;8.566;2023-04-25T06:27:54;97196.00;;;8.70
15062;BMP180;7630;50.306;8.566;2023-04-25T06:31:55;97164.00;;;8.20
15062;BMP180;7630;50.306;8.566;2023-04-25T06:35:58;97200.00;;;9.60
15062;BMP180;7630;50.306;8.566;2023-04-25T06:39:59;97210.00;;;9.30
15062;BMP180;7630;50.306;8.566;2023-04-25T06:44:00;97210.00;;;10.40
15062;BMP180;7630;50.306;8.566;2023-04-25T06:48:01;97199.00;;;10.10
15062;BMP180;7630;50.306;8.566;2023-04-25T06:52:02;97207.00;;;9.90
15062;BMP180;7630;50.306;8.566;2023-04-25T06:56:03;97215.00;;;10.70
15062;BMP180;7630;50.306;8.566;2023-04-25T07:00:06;97212.00;;;9.80
15062;BMP180;7630;50.306;8.566;2023-04-25T07:04:09;97225.00;;;10.30
15062;BMP180;7630;50.306;8.566;2023-04-25T07:08:11;97236.00;;;11.10
15062;BMP180;7630;50.306;8.566;2023-04-25T07:12:12;97240.00;;;10.20
15062;BMP180;7630;50.306;8.566;2023-04-25T07:16:13;97242.00;;;9.80
15062;BMP180;7630;50.306;8.566;2023-04-25T07:20:14;97248.00;;;9.60
15062;BMP180;7630;50.306;8.566;2023-04-25T07:24:15;97256.00;;;10.30
15062;BMP180;7630;50.306;8.566;2023-04-25T07:28:17;97258.00;;;10.30
15062;BMP180;7630;50.306;8.566;2023-04-25T07:32:20;97266.00;;;10.20
15062;BMP180;7630;50.306;8.566;2023-04-25T07:36:21;97271.00;;;11.30
15062;BMP180;7630;50.306;8.566;2023-04-25T07:40:22;97271.00;;;11.20
15062;BMP180;7630;50.306;8.566;2023-04-25T07:44:24;97280.00;;;11.50
15062;BMP180;7630;50.306;8.566;2023-04-25T07:48:26;97275.00;;;11.30
15062;BMP180;7630;50.306;8.566;2023-04-25T07:52:27;97277.00;;;11.10
15062;BMP180;7630;50.306;8.566;2023-04-25T07:56:28;97286.00;;;10.70
15062;BMP180;7630;50.306;8.566;2023-04-25T08:00:31;97294.00;;;10.50
15062;BMP180;7630;50.306;8.566;2023-04-25T08:04:32;97289.00;;;10.20
15062;BMP180;7630;50.306;8.566;2023-04-25T08:08:33;97293.00;;;10.40
15062;BMP180;7630;50.306;8.566;2023-04-25T08:12:35;97300.00;;;10.00
15062;BMP180;7630;50.306;8.566;2023-04-25T08:16:36;97297.00;;;10.50
15062;BMP180;7630;50.306;8.566;2023-04-25T08:20:37;97297.00;;;11.00
15062;BMP180;7630;50.306;8.566;2023-04-25T08:24:38;97298.00;;;11.50
15062;BMP180;7630;50.306;8.566;2023-04-25T08:28:40;97307.00;;;11.60
15062;BMP180;7630;50.306;8.566;2023-04-25T08:32:41;97305.00;;;12.20
15062;BMP180;7630;50.306;8.566;2023-04-25T08:36:42;97313.00;;;11.20
15062;BMP180;7630;50.306;8.566;2023-04-25T08:40:44;97317.00;;;12.10
15062;BMP180;7630;50.306;8.566;2023-04-25T08:44:45;97328.00;;;11.90
15062;BMP180;7630;50.306;8.566;2023-04-25T08:48:48;97333.00;;;11.80
15062;BMP180;7630;50.306;8.566;2023-04-25T08:52:50;97344.00;;;11.40
15062;BMP180;7630;50.306;8.566;2023-04-25T08:56:54;97335.00;;;10.40
15062;BMP180;7630;50.306;8.566;2023-04-25T09:00:56;97342.00;;;11.60
15062;BMP180;7630;50.306;8.566;2023-04-25T09:04:57;97343.00;;;11.80
15062;BMP180;7630;50.306;8.566;2023-04-25T09:09:04;97204.00;;;11.80
15062;BMP180;7630;50.306;8.566;2023-04-25T09:13:13;97348.00;;;12.70
15062;BMP180;7630;50.306;8.566;2023-04-25T09:17:17;97423.00;;;11.40
15062;BMP180;7630;50.306;8.566;2023-04-25T09:21:22;97366.00;;;11.90
15062;BMP180;7630;50.306;8.566;2023-04-25T09:25:24;97367.00;;;10.60
15062;BMP180;7630;50.306;8.566;2023-04-25T09:29:34;97370.00;;;11.40
15062;BMP180;7630;50.306;8.566;2023-04-25T09:33:36;97371.00;;;12.10
15062;BMP180;7630;50.306;8.566;2023-04-25T09:37:37;97381.00;;;11.70
15062;BMP180;7630;50.306;8.566;2023-04-25T09:41:40;97377.00;;;11.90
15062;BMP180;7630;50.306;8.566;2023-04-25T09:45:42;97387.00;;;9.00
15062;BMP180;7630;50.306;8.566;2023-04-25T09:49:48;97402.00;;;8.40
15062;BMP180;7630;50.306;8.566;2023-04-25T09:53:49;97426.00;;;8.20
15062;BMP180;7630;50.306;8.566;2023-04-25T09:57:55;97415.00;;;7.70
15062;BMP180;7630;50.306;8.566;2023-04-25T10:01:58;97437.00;;;7.80
15062;BMP180;7630;50.306;8.566;2023-04-25T10:06:07;97429.00;;;7.60
15062;BMP180;7630;50.306;8.566;2023-04-25T10:10:06;97437.00;;;8.20
15062;BMP180;7630;50.306;8.566;2023-04-25T10:14:08;97443.00;;;8.20
15062;BMP180;7630;50.306;8.566;2023-04-25T10:18:09;97436.00;;;8.80
15062;BMP180;7630;50.306;8.566;2023-04-25T10:26:35;97443.00;;;9.40
15062;BMP180;7630;50.306;8.566;2023-04-25T10:30:36;97439.00;;;11.50
15062;BMP180;7630;50.306;8.566;2023-04-25T10:34:42;97438.00;;;12.00
15062;BMP180;7630;50.306;8.566;2023-04-25T10:38:47;97422.00;;;13.00
15062;BMP180;7630;50.306;8.566;2023-04-25T10:42:49;97434.00;;;12.30
15062;BMP180;7630;50.306;8.566;2023-04-25T10:46:50;97439.00;;;11.80
15062;BMP180;7630;50.306;8.566;2023-04-25T10:51:08;97443.00;;;10.50
15062;BMP180;7630;50.306;8.566;2023-04-25T10:55:22;97559.00;;;11.10
15062;BMP180;7630;50.306;8.566;2023-04-25T10:59:24;97458.00;;;11.00
15062;BMP180;7630;50.306;8.566;2023-04-25T11:03:26;97446.00;;;13.20
15062;BMP180;7630;50.306;8.566;2023-04-25T11:07:55;97450.00;;;12.80
15062;BMP180;7630;50.306;8.566;2023-04-25T11:11:59;97453.00;;;13.30
15062;BMP180;7630;50.306;8.566;2023-04-25T11:16:01;97449.00;;;14.70
15062;BMP180;7630;50.306;8.566;2023-04-25T11:20:05;97450.00;;;13.60
15062;BMP180;7630;50.306;8.566;2023-04-25T11:24:11;97449.00;;;13.90
15062;BMP180;7630;50.306;8.566;2023-04-25T11:28:12;97441.00;;;13.90
15062;BMP180;7630;50.306;8.566;2023-04-25T11:32:17;97450.00;;;13.80
15062;BMP180;7630;50.306;8.566;2023-04-25T11:36:20;97453.00;;;13.40
15062;BMP180;7630;50.306;8.566;2023-04-25T11:40:23;97460.00;;;12.80
15062;BMP180;7630;50.306;8.566;2023-04-25T11:44:25;97472.00;;;10.00
15062;BMP180;7630;50.306;8.566;2023-04-25T11:48:26;97477.00;;;10.60
15062;BMP180;7630;50.306;8.566;2023-04-25T11:52:42;97483.00;;;10.00
15062;BMP180;7630;50.306;8.566;2023-04-25T11:56:45;97486.00;;;9.60
15062;BMP180;7630;50.306;8.566;2023-04-25T12:00:46;97502.00;;;11.00
15062;BMP180;7630;50.306;8.566;2023-04-25T12:04:49;97503.00;;;11.00
15062;BMP180;7630;50.306;8.566;2023-04-25T12:09:04;97513.00;;;11.50
15062;BMP180;7630;50.306;8.566;2023-04-25T12:13:20;97503.00;;;11.40
15062;BMP180;7630;50.306;8.566;2023-04-25T12:17:22;97495.00;;;12.20
15062;BMP180;7630;50.306;8.566;2023-04-25T12:21:23;97488.00;;;11.60
15062;BMP180;7630;50.306;8.566;2023-04-25T12:29:49;97484.00;;;12.80
15062;BMP180;7630;50.306;8.566;2023-04-25T12:33:47;97483.00;;;13.10
15062;BMP180;7630;50.306;8.566;2023-04-25T12:37:48;97469.00;;;14.60
15062;BMP180;7630;50.306;8.566;2023-04-25T12:41:50;97491.00;;;15.20
15062;BMP180;7630;50.306;8.566;2023-04-25T12:45:52;97488.00;;;14.30
15062;BMP180;7630;50.306;8.566;2023-04-25T12:49:54;97492.00;;;12.00
15062;BMP180;7630;50.306;8.566;2023-04-25T12:53:55;97510.00;;;11.60
15062;BMP180;7630;50.306;8.566;2023-04-25T12:57:56;97519.00;;;10.90
15062;BMP180;7630;50.306;8.566;2023-04-25T13:01:57;97517.00;;;12.80
15062;BMP180;7630;50.306;8.566;2023-04-25T13:05:59;97525.00;;;12.90
15062;BMP180;7630;50.306;8.566;2023-04-25T13:10:00;97518.00;;;12.60
15062;BMP180;7630;50.306;8.566;2023-04-25T13:14:04;97522.00;;;12.80
15062;BMP180;7630;50.306;8.566;2023-04-25T13:18:05;97531.00;;;11.80
15062;BMP180;7630;50.306;8.566;2023-04-25T13:22:06;97515.00;;;12.30
15062;BMP180;7630;50.306;8.566;2023-04-25T13:26:08;97522.00;;;13.00
15062;BMP180;7630;50.306;8.566;2023-04-25T13:30:09;97518.00;;;13.60
15062;BMP180;7630;50.306;8.566;2023-04-25T13:34:10;97525.00;;;13.20
15062;BMP180;7630;50.306;8.566;2023-04-25T13:38:13;97521.00;;;14.50
15062;BMP180;7630;50.306;8.566;2023-04-25T13:42:14;97525.00;;;14.90
15062;BMP180;7630;50.306;8.566;2023-04-25T13:46:16;97518.00;;;14.70
15062;BMP180;7630;50.306;8.566;2023-04-25T13:50:20;97538.00;;;15.00
15062;BMP180;7630;50.306;8.566;2023-04-25T13:54:21;97538.00;;;15.60
15062;BMP180;7630;50.306;8.566;2023-04-25T13:58:22;97536.00;;;13.40
15062;BMP180;7630;50.306;8.566;2023-04-25T14:02:23;97540.00;;;13.90
15062;BMP180;7630;50.306;8.566;2023-04-25T14:06:24;97544.00;;;12.70
15062;BMP180;7630;50.306;8.566;2023-04-25T14:10:26;97547.00;;;13.30
15062;BMP180;7630;50.306;8.566;2023-04-25T14:14:26;97550.00;;;13.50
15062;BMP180;7630;50.306;8.566;2023-04-25T14:18:28;97555.00;;;12.70
15062;BMP180;7630;50.306;8.566;2023-04-25T14:22:29;97553.00;;;13.30
15062;BMP180;7630;50.306;8.566;2023-04-25T14:26:30;97555.00;;;12.70
15062;BMP180;7630;50.306;8.566;2023-04-25T14:30:31;97565.00;;;12.30
15062;BMP180;7630;50.306;8.566;2023-04-25T14:34:32;97556.00;;;12.50
15062;BMP180;7630;50.306;8.566;2023-04-25T14:38:33;97565.00;;;12.70
15062;BMP180;7630;50.306;8.566;2023-04-25T14:42:34;97565.00;;;12.80
15062;BMP180;7630;50.306;8.566;2023-04-25T14:46:36;97578.00;;;12.70
15062;BMP180;7630;50.306;8.566;2023-04-25T14:50:37;97577.00;;;12.30
15062;BMP180;7630;50.306;8.566;2023-04-25T14:54:38;97579.00;;;14.30
15062;BMP180;7630;50.306;8.566;2023-04-25T14:58:39;97586.00;;;14.50
15062;BMP180;7630;50.306;8.566;2023-04-25T15:02:41;97604.00;;;14.00
15062;BMP180;7630;50.306;8.566;2023-04-25T15:06:42;97578.00;;;14.40
15062;BMP180;7630;50.306;8.566;2023-04-25T15:10:44;97582.00;;;13.50
15062;BMP180;7630;50.306;8.566;2023-04-25T15:14:46;97587.00;;;14.00
15062;BMP180;7630;50.306;8.566;2023-04-25T15:18:47;97586.00;;;15.10
15062;BMP180;7630;50.306;8.566;2023-04-25T15:22:48;97576.00;;;14.20
15062;BMP180;7630;50.306;8.566;2023-04-25T15:26:49;97598.00;;;12.80
15062;BMP180;7630;50.306;8.566;2023-04-25T15:30:51;97583.00;;;12.50
15062;BMP180;7630;50.306;8.566;2023-04-25T15:34:52;97601.00;;;13.60
15062;BMP180;7630;50.306;8.566;2023-04-25T15:38:53;97595.00;;;12.40
15062;BMP180;7630;50.306;8.566;2023-04-25T15:42:54;97591.00;;;12.40
15062;BMP180;7630;50.306;8.566;2023-04-25T15:46:55;97605.00;;;13.80
15062;BMP180;7630;50.306;8.566;2023-04-25T15:50:56;97601.00;;;13.20
15062;BMP180;7630;50.306;8.566;2023-04-25T15:54:57;97596.00;;;13.10
15062;BMP180;7630;50.306;8.566;2023-04-25T15:58:58;97616.00;;;12.20
15062;BMP180;7630;50.306;8.566;2023-04-25T16:02:59;97609.00;;;12.00
15062;BMP180;7630;50.306;8.566;2023-04-25T16:07:02;97606.00;;;11.50
15062;BMP180;7630;50.306;8.566;2023-04-25T16:11:03;97607.00;;;11.00
15062;BMP180;7630;50.306;8.566;2023-04-25T16:15:05;97603.00;;;11.30
15062;BMP180;7630;50.306;8.566;2023-04-25T16:19:07;97605.00;;;10.70
15062;BMP180;7630;50.306;8.566;2023-04-25T16:23:08;97600.00;;;11.90
15062;BMP180;7630;50.306;8.566;2023-04-25T16:27:09;97605.00;;;12.70
15062;BMP180;7630;50.306;8.566;2023-04-25T16:31:10;97603.00;;;13.90
15062;BMP180;7630;50.306;8.566;2023-04-25T16:35:12;97613.00;;;12.30
15062;BMP180;7630;50.306;8.566;2023-04-25T16:39:13;97618.00;;;12.20
15062;BMP180;7630;50.306;8.566;2023-04-25T16:43:14;97617.00;;;12.00
15062;BMP180;7630;50.306;8.566;2023-04-25T16:47:17;97614.00;;;11.30
15062;BMP180;7630;50.306;8.566;2023-04-25T16:51:20;97614.00;;;12.30
15062;BMP180;7630;50.306;8.566;2023-04-25T16:55:21;97616.00;;;12.70
15062;BMP180;7630;50.306;8.566;2023-04-25T16:59:23;97612.00;;;13.00
15062;BMP180;7630;50.306;8.566;2023-04-25T17:03:24;97618.00;;;12.50
15062;BMP180;7630;50.306;8.566;2023-04-25T17:07:26;97622.00;;;12.30
15062;BMP180;7630;50.306;8.566;2023-04-25T17:11:27;97633.00;;;13.50
15062;BMP180;7630;50.306;8.566;2023-04-25T17:15:28;97647.00;;;13.20
15062;BMP180;7630;50.306;8.566;2023-04-25T17:19:29;97634.00;;;12.10
15062;BMP180;7630;50.306;8.566;2023-04-25T17:23:31;97636.00;;;12.00
15062;BMP180;7630;50.306;8.566;2023-04-25T17:27:34;97645.00;;;11.70
15062;BMP180;7630;50.306;8.566;2023-04-25T17:31:36;97650.00;;;10.90
15062;BMP180;7630;50.306;8.566;2023-04-25T17:35:38;97678.00;;;11.70
15062;BMP180;7630;50.306;8.566;2023-04-25T17:39:40;97657.00;;;11.10
15062;BMP180;7630;50.306;8.566;2023-04-25T17:43:41;97655.00;;;11.40
15062;BMP180;7630;50.306;8.566;2023-04-25T17:47:43;97655.00;;;11.60
15062;BMP180;7630;50.306;8.566;2023-04-25T17:51:44;97667.00;;;10.60
15062;BMP180;7630;50.306;8.566;2023-04-25T17:55:45;97663.00;;;10.90
15062;BMP180;7630;50.306;8.566;2023-04-25T17:59:46;97671.00;;;10.30
15062;BMP180;7630;50.306;8.566;2023-04-25T18:03:47;97679.00;;;10.50
15062;BMP180;7630;50.306;8.566;2023-04-25T18:07:49;97684.00;;;10.90
15062;BMP180;7630;50.306;8.566;2023-04-25T18:11:51;97694.00;;;10.80
15062;BMP180;7630;50.306;8.566;2023-04-25T18:15:56;97696.00;;;10.60
15062;BMP180;7630;50.306;8.566;2023-04-25T18:19:57;97700.00;;;11.20
15062;BMP180;7630;50.306;8.566;2023-04-25T18:23:58;97702.00;;;11.40
15062;BMP180;7630;50.306;8.566;2023-04-25T18:27:59;97709.00;;;10.70
15062;BMP180;7630;50.306;8.566;2023-04-25T18:32:00;97718.00;;;10.20
15062;BMP180;7630;50.306;8.566;2023-04-25T18:36:02;97715.00;;;10.10
15062;BMP180;7630;50.306;8.566;2023-04-25T18:40:03;97721.00;;;11.00
15062;BMP180;7630;50.306;8.566;2023-04-25T18:44:06;97723.00;;;10.20
15062;BMP180;7630;50.306;8.566;2023-04-25T18:48:08;97731.00;;;10.60
15062;BMP180;7630;50.306;8.566;2023-04-25T18:52:09;97740.00;;;10.30
15062;BMP180;7630;50.306;8.566;2023-04-25T18:56:12;97754.00;;;10.40
15062;BMP180;7630;50.306;8.566;2023-04-25T19:00:16;97751.00;;;10.60
15062;BMP180;7630;50.306;8.566;2023-04-25T19:04:17;97765.00;;;9.90
15062;BMP180;7630;50.306;8.566;2023-04-25T19:08:19;97774.00;;;9.70
15062;BMP180;7630;50.306;8.566;2023-04-25T19:12:20;97769.00;;;9.40
15062;BMP180;7630;50.306;8.566;2023-04-25T19:16:21;97772.00;;;9.50
15062;BMP180;7630;50.306;8.566;2023-04-25T19:20:23;97781.00;;;9.40
15062;BMP180;7630;50.306;8.566;2023-04-25T19:24:25;97780.00;;;10.10
15062;BMP180;7630;50.306;8.566;2023-04-25T19:28:26;97787.00;;;9.40
15062;BMP180;7630;50.306;8.566;2023-04-25T19:32:29;97787.00;;;9.60
15062;BMP180;7630;50.306;8.566;2023-04-25T19:36:31;97786.00;;;9.40
15062;BMP180;7630;50.306;8.566;2023-04-25T19:40:32;97795.00;;;9.90
15062;BMP180;7630;50.306;8.566;2023-04-25T19:44:33;97799.00;;;10.20
15062;BMP180;7630;50.306;8.566;2023-04-25T19:48:36;97791.00;;;9.50
15062;BMP180;7630;50.306;8.566;2023-04-25T19:52:38;97792.00;;;9.90
15062;BMP180;7630;50.306;8.566;2023-04-25T19:56:39;97794.00;;;9.70
15062;BMP180;7630;50.306;8.566;2023-04-25T20:00:40;97791.00;;;9.80
15062;BMP180;7630;50.306;8.566;2023-04-25T20:04:41;97801.00;;;9.90
15062;BMP180;7630;50.306;8.566;2023-04-25T20:08:42;97805.00;;;10.20
15062;BMP180;7630;50.306;8.566;2023-04-25T20:12:44;97810.00;;;10.10
15062;BMP180;7630;50.306;8.566;2023-04-25T20:16:45;97814.00;;;10.20
15062;BMP180;7630;50.306;8.566;2023-04-25T20:20:47;97813.00;;;10.10
15062;BMP180;7630;50.306;8.566;2023-04-25T20:24:48;97814.00;;;10.20
15062;BMP180;7630;50.306;8.566;2023-04-25T20:28:49;97808.00;;;10.40
15062;BMP180;7630;50.306;8.566;2023-04-25T20:32:51;97814.00;;;10.00
15062;BMP180;7630;50.306;8.566;2023-04-25T20:36:52;97817.00;;;10.20
15062;BMP180;7630;50.306;8.566;2023-04-25T20:40:53;97816.00;;;10.30
15062;BMP180;7630;50.306;8.566;2023-04-25T20:44:55;97818.00;;;9.60
15062;BMP180;7630;50.306;8.566;2023-04-25T20:48:57;97820.00;;;9.90
15062;BMP180;7630;50.306;8.566;2023-04-25T20:52:58;97825.00;;;9.40
15062;BMP180;7630;50.306;8.566;2023-04-25T20:56:59;97821.00;;;9.70
15062;BMP180;7630;50.306;8.566;2023-04-25T21:01:01;97793.00;;;9.40
15062;BMP180;7630;50.306;8.566;2023-04-25T21:05:03;97813.00;;;9.60
15062;BMP180;7630;50.306;8.566;2023-04-25T21:09:04;97817.00;;;9.80
15062;BMP180;7630;50.306;8.566;2023-04-25T21:13:06;97822.00;;;9.80
15062;BMP180;7630;50.306;8.566;2023-04-25T21:17:08;97834.00;;;9.50
15062;BMP180;7630;50.306;8.566;2023-04-25T21:21:09;97833.00;;;9.30
15062;BMP180;7630;50.306;8.566;2023-04-25T21:25:10;97841.00;;;9.20
15062;BMP180;7630;50.306;8.566;2023-04-25T21:29:11;97835.00;;;9.10
15062;BMP180;7630;50.306;8.566;2023-04-25T21:33:12;97835.00;;;8.80
15062;BMP180;7630;50.306;8.566;2023-04-25T21:37:13;97837.00;;;8.40
15062;BMP180;7630;50.306;8.566;2023-04-25T21:41:14;97834.00;;;8.30
15062;BMP180;7630;50.306;8.566;2023-04-25T21:45:16;97822.00;;;8.10
15062;BMP180;7630;50.306;8.566;2023-04-25T21:49:17;97832.00;;;8.60
15062;BMP180;7630;50.306;8.566;2023-04-25T21:53:18;97826.00;;;9.00
15062;BMP180;7630;50.306;8.566;2023-04-25T21:57:19;97830.00;;;8.90
15062;BMP180;7630;50.306;8.566;2023-04-25T22:01:24;97833.00;;;8.70
15062;BMP180;7630;50.306;8.566;2023-04-25T22:05:25;97847.00;;;8.50
15062;BMP180;7630;50.306;8.566;2023-04-25T22:09:27;97816.00;;;8.40
15062;BMP180;7630;50.306;8.566;2023-04-25T22:13:28;97841.00;;;8.20
15062;BMP180;7630;50.306;8.566;2023-04-25T22:17:30;97864.00;;;8.20
15062;BMP180;7630;50.306;8.566;2023-04-25T22:21:32;97865.00;;;8.00
15062;BMP180;7630;50.306;8.566;2023-04-25T22:25:33;97858.00;;;7.90
15062;BMP180;7630;50.306;8.566;2023-04-25T22:29:35;97862.00;;;7.90
15062;BMP180;7630;50.306;8.566;2023-04-25T22:33:37;97867.00;;;7.80
15062;BMP180;7630;50.306;8.566;2023-04-25T22:37:39;97872.00;;;7.80
15062;BMP180;7630;50.306;8.566;2023-04-25T22:41:40;97883.00;;;7.80
15062;BMP180;7630;50.306;8.566;2023-04-25T22:45:42;97886.00;;;7.60
15062;BMP180;7630;50.306;8.566;2023-04-25T22:49:43;97892.00;;;7.60
15062;BMP180;7630;50.306;8.566;2023-04-25T22:53:45;97886.00;;;7.30
15062;BMP180;7630;50.306;8.566;2023-04-25T22:57:46;97891.00;;;7.20
15062;BMP180;7630;50.306;8.566;2023-04-25T23:01:47;97897.00;;;7.10
15062;BMP180;7630;50.306;8.566;2023-04-25T23:05:50;97891.00;;;7.40
15062;BMP180;7630;50.306;8.566;2023-04-25T23:09:51;97897.00;;;7.10
15062;BMP180;7630;50.306;8.566;2023-04-25T23:13:52;97898.00;;;7.00
15062;BMP180;7630;50.306;8.566;2023-04-25T23:17:53;97898.00;;;7.40
15062;BMP180;7630;50.306;8.566;2023-04-25T23:21:54;97904.00;;;7.40
15062;BMP180;7630;50.306;8.566;2023-04-25T23:25:55;97896.00;;;7.20
15062;BMP180;7630;50.306;8.566;2023-04-25T23:29:57;97902.00;;;6.90
15062;BMP180;7630;50.306;8.566;2023-04-25T23:33:58;97904.00;;;7.10
15062;BMP180;7630;50.306;8.566;2023-04-25T23:37:59;97899.00;;;7.00
15062;BMP180;7630;50.306;8.566;2023-04-25T23:42:01;97910.00;;;7.10
15062;BMP180;7630;50.306;8.566;2023-04-25T23:46:02;97901.00;;;6.90
15062;BMP180;7630;50.306;8.566;2023-04-25T23:50:03;97903.00;;;6.70